Latest Coastal Weather Observations for Bougainville Reef

IDQ60701

Issued at 6:51 am EST Sunday 5 July 2015 (issued every 10 minutes, with the page automatically refreshed every 10 minutes)

About coastal observations | Map of coastal stations | Coastal observations for QLD | Marine services | Other Formats
Station Details ID: 200840 Name: BOUGAINVILLE REEF Lat: -15.49 Lon: 147.12 Height: 0.0 m
Data from the previous 72 hours. | See also: Recent months for locations in Queensland
Date/Time
EST
Temp

°C
Wind Pressure Rain
since 9am
mm
Weather Cloud Vis
km
Sea
Height
m
Swell
Dir
 
Speed
knots
Gust
knots
hPa Trend Height
m
Period
s
Dir
05/06:00am 23.1 SE 16 - 1015.3 - - - - - - - - -
05/05:00am 23.8 SSE 16 - 1014.9 - - - - - - - - -
05/04:00am 24.0 SE 16 - 1014.6 - - - - - - - - -
05/03:00am 24.0 SE 17 - 1014.5 - - - - - - - - -
05/02:30am 24.0 ESE 18 21 1014.6 - - - - - - - - -
05/02:00am 24.2 ESE 18 21 1014.7 - - - - - - - - -
05/01:30am 24.2 SE 18 22 1015.0 - - - - - - - - -
05/01:00am 24.4 ESE 18 22 1015.3 - - - - - - - - -
05/12:30am 24.3 SE 19 23 1015.5 - - - - - - - - -
05/12:00am 24.3 SE 21 22 1015.5 - - - - - - - - -
 
Date/Time
EST
Temp

°C
Wind Pressure Rain
since 9am
mm
Weather Cloud Vis
km
Sea
Height
m
Swell
Dir
 
Speed
knots
Gust
knots
hPa Trend Height
m
Period
s
Dir
04/11:30pm 24.3 SE 20 24 1015.8 - - - - - - - - -
04/11:00pm 24.4 SE 21 24 1016.0 - - - - - - - - -
04/10:30pm 24.4 SE 21 24 1016.2 - - - - - - - - -
04/10:00pm 24.3 SE 21 - 1016.1 - - - - - - - - -
04/09:00pm 24.2 SE 21 - 1016.0 - - - - - - - - -
04/08:30pm 24.3 SE 21 24 1016.1 - - - - - - - - -
04/08:00pm 24.2 SE 20 25 1015.8 - - - - - - - - -
04/07:30pm 24.2 SE 20 24 1015.7 - - - - - - - - -
04/07:00pm 24.2 SE 22 25 1015.1 - - - - - - - - -
04/06:30pm 24.3 SE 21 25 1015.0 - - - - - - - - -
04/06:00pm 24.4 SE 21 25 1014.6 - - - - - - - - -
04/05:30pm 24.3 SE 21 24 1014.6 - - - - - - - - -
04/05:00pm 24.3 SE 19 23 1014.4 - - - - - - - - -
04/04:30pm 24.3 SE 20 24 1014.5 - - - - - - - - -
04/04:00pm 24.0 SE 20 23 1014.1 - - - - - - - - -
04/03:30pm 24.0 SE 20 23 1014.2 - - - - - - - - -
04/03:00pm 24.0 SE 20 23 1014.3 - - - - - - - - -
04/02:30pm 24.0 SE 19 23 1014.5 - - - - - - - - -
04/02:00pm 23.9 SE 21 23 1014.4 - - - - - - - - -
04/01:30pm 23.8 SE 21 23 1014.7 - - - - - - - - -
04/01:00pm 23.7 SE 21 25 1015.2 - - - - - - - - -
04/12:30pm 23.8 SE 22 27 1015.6 - - - - - - - - -
04/12:00pm 23.8 SE 22 25 1016.0 - - - - - - - - -
04/11:30am 23.7 SE 22 24 1016.2 - - - - - - - - -
04/11:00am 23.8 SE 21 25 1016.4 - - - - - - - - -
04/10:30am 23.8 SE 21 24 1016.7 - - - - - - - - -
04/10:00am 24.0 SE 19 23 1016.8 - - - - - - - - -
04/09:30am 24.0 SE 20 23 1016.8 - - - - - - - - -
04/09:00am 23.8 SE 20 23 1016.5 - - - - - - - - -
04/08:30am 23.9 SE 21 24 1016.4 - - - - - - - - -
04/08:00am 24.1 SE 19 21 1015.6 - - - - - - - - -
04/07:30am 23.8 SE 20 23 1015.5 - - - - - - - - -
04/07:00am 24.0 SE 21 22 1015.1 - - - - - - - - -
04/06:30am 24.1 SE 19 23 1015.0 - - - - - - - - -
04/06:00am 24.1 SE 17 21 1014.7 - - - - - - - - -
04/05:00am 23.9 SE 17 - 1014.6 - - - - - - - - -
04/04:00am 23.1 SSE 16 - 1014.7 - - - - - - - - -
04/03:00am 23.2 SSE 20 - 1015.2 - - - - - - - - -
04/02:00am 23.2 SSE 23 - 1015.4 - - - - - - - - -
04/01:00am 23.5 SSE 23 27 1015.8 - - - - - - - - -
04/12:30am 23.4 SSE 24 29 1015.9 - - - - - - - - -
04/12:00am 23.4 SSE 25 29 1015.9 - - - - - - - - -
 
Date/Time
EST
Temp

°C
Wind Pressure Rain
since 9am
mm
Weather Cloud Vis
km
Sea
Height
m
Swell
Dir
 
Speed
knots
Gust
knots
hPa Trend Height
m
Period
s
Dir
03/11:00pm 23.6 SSE 25 30 1016.6 - - - - - - - - -
03/10:00pm 23.9 SE 25 - 1016.8 - - - - - - - - -
03/09:00pm 24.0 SE 24 - 1016.5 - - - - - - - - -
03/08:00pm 24.1 SSE 26 30 1015.6 - - - - - - - - -
03/07:30pm 24.2 SSE 24 27 1015.5 - - - - - - - - -
03/07:00pm 24.1 SSE 25 28 1015.0 - - - - - - - - -
03/06:30pm 24.0 SSE 24 28 1014.9 - - - - - - - - -
03/06:00pm 24.1 SSE 23 26 1014.5 - - - - - - - - -
03/05:30pm 24.3 SSE 22 25 1014.6 - - - - - - - - -
03/05:00pm 24.1 SSE 23 25 1014.1 - - - - - - - - -
03/04:30pm 24.0 SSE 21 24 1014.2 - - - - - - - - -
03/04:00pm 24.0 SSE 22 26 1013.9 - - - - - - - - -
03/03:30pm 24.1 SSE 22 26 1014.0 - - - - - - - - -
03/03:00pm 24.1 SE 21 25 1013.8 - - - - - - - - -
03/02:30pm 24.1 SSE 22 27 1014.0 - - - - - - - - -
03/02:00pm 24.1 SSE 20 26 1014.3 - - - - - - - - -
03/01:30pm 24.1 SSE 21 25 1014.6 - - - - - - - - -
03/01:00pm 24.1 SSE 21 25 1015.1 - - - - - - - - -
03/12:30pm 24.1 SSE 22 27 1015.3 - - - - - - - - -
03/12:00pm 24.2 SSE 22 25 1015.7 - - - - - - - - -
03/11:30am 24.1 SE 22 26 1015.9 - - - - - - - - -
03/11:00am 24.1 SE 21 26 1016.3 - - - - - - - - -
03/10:30am 24.2 SE 21 24 1016.6 - - - - - - - - -
03/10:00am 24.1 SE 23 26 1016.6 - - - - - - - - -
03/09:30am 24.1 SSE 23 26 1016.7 - - - - - - - - -
03/09:00am 24.2 SE 21 26 1016.6 - - - - - - - - -
03/08:30am 24.2 SE 23 27 1016.5 - - - - - - - - -
03/08:00am 24.2 SSE 24 27 1016.0 - - - - - - - - -
03/07:30am 24.2 SE 21 24 1016.0 - - - - - - - - -
03/07:00am 24.1 SSE 19 23 1015.5 - - - - - - - - -
03/06:00am 24.0 SE 21 24 1015.1 - - - - - - - - -
03/05:30am 24.1 SE 21 26 1015.1 - - - - - - - - -
03/05:00am 24.1 SSE 24 27 1014.7 - - - - - - - - -
03/04:30am 24.3 SSE 24 28 1014.7 - - - - - - - - -
03/04:00am 24.5 SE 24 29 1014.7 - - - - - - - - -
03/03:30am 24.3 SE 24 27 1014.8 - - - - - - - - -
03/03:00am 24.3 SE 24 29 1015.0 - - - - - - - - -
03/02:30am 24.2 SE 24 28 1015.4 - - - - - - - - -
03/02:00am 24.3 SE 23 27 1015.6 - - - - - - - - -
03/01:30am 24.3 SE 22 27 1015.9 - - - - - - - - -
03/01:00am 24.5 SE 19 23 1016.2 - - - - - - - - -
03/12:30am 24.3 SE 20 23 1016.4 - - - - - - - - -
03/12:00am 24.6 SSE 21 24 1016.5 - - - - - - - - -
 
Date/Time
EST
Temp

°C
Wind Pressure Rain
since 9am
mm
Weather Cloud Vis
km
Sea
Height
m
Swell
Dir
 
Speed
knots
Gust
knots
hPa Trend Height
m
Period
s
Dir
02/11:30pm 24.5 SSE 21 25 1016.7 - - - - - - - - -
02/11:00pm 24.5 SSE 23 26 1017.0 - - - - - - - - -
02/10:30pm 24.6 SE 23 27 1017.3 - - - - - - - - -
02/10:00pm 24.6 SE 23 27 1017.4 - - - - - - - - -
02/09:30pm 24.5 SE 24 28 1017.6 - - - - - - - - -
02/09:00pm 24.6 SE 24 28 1017.2 - - - - - - - - -
02/08:30pm 24.5 SE 25 29 1017.2 - - - - - - - - -
02/08:00pm 24.5 SE 25 28 1016.8 - - - - - - - - -
02/07:30pm 24.7 SE 25 29 1016.8 - - - - - - - - -
02/07:00pm 24.7 SE 23 28 1016.5 - - - - - - - - -
02/06:30pm 24.6 SE 24 29 1016.3 - - - - - - - - -
02/06:00pm 24.6 SSE 24 26 1015.9 - - - - - - - - -
02/05:30pm 24.6 SSE 24 27 1016.0 - - - - - - - - -
02/05:00pm 24.6 SE 24 28 1015.6 - - - - - - - - -
02/04:30pm 24.6 SE 22 26 1015.7 - - - - - - - - -
02/04:00pm 24.6 SSE 23 28 1015.4 - - - - - - - - -
02/03:30pm 24.7 SE 24 28 1015.5 - - - - - - - - -
02/03:00pm 24.7 SSE 23 27 1015.7 - - - - - - - - -
02/02:30pm 24.6 SE 23 27 1016.0 - - - - - - - - -
02/02:00pm 24.6 SE 23 26 1016.1 - - - - - - - - -
02/01:30pm 24.7 SE 24 28 1016.5 - - - - - - - - -
02/01:00pm 24.7 SSE 22 25 1017.0 - - - - - - - - -
02/12:30pm 24.6 SE 22 25 1017.5 - - - - - - - - -
02/12:00pm 24.8 SE 22 25 1017.7 - - - - - - - - -
02/11:30am 24.7 SE 22 26 1018.0 - - - - - - - - -
02/11:00am 24.6 SE 22 27 1018.3 - - - - - - - - -
02/10:30am 24.6 SE 22 26 1018.4 - - - - - - - - -
02/10:00am 24.7 SE 20 25 1018.7 - - - - - - - - -
02/09:30am 24.8 SE 21 25 1019.0 - - - - - - - - -
02/09:00am 24.7 SE 21 26 1018.7 - - - - - - - - -
02/08:30am 24.7 SE 23 27 1018.5 - - - - - - - - -
02/08:00am 24.7 SE 22 27 1018.0 - - - - - - - - -
02/07:30am 24.6 SE 22 25 1018.0 - - - - - - - - -
02/07:00am 24.7 SE 23 29 1017.4 - - - - - - - - -

Other Formats:

Comma delimited format used in spreadsheet applications
http://www.bom.gov.au/fwo/IDQ60701/IDQ60701.95288.axf

JavaScript Object Notation format (JSON) in row-major order
http://www.bom.gov.au/fwo/IDQ60701/IDQ60701.95288.json